TAF PASD
PASD 090521Z 0906/1006 18015G26KT 2SM -RA BR OVC015 FM091000 19025G35KT 2SM -RA BR OVC007 FM091500 22035G45KT 2SM -RA BR OVC015 AMD LTD TO CLD VIS AND WIND=
METAR PASD
WC PASD
WS PASD
WV PASD